FranceFixed distance
Luchon Aneto Trail - Lat Challenge
5–6 Jul2025·2 stages
Distance
87km
Finishers
145113 men32 women
Winning time
9:36:56h
Median pace
5.98km/h
Pace distribution
145 finishers · 4.50–9.05 km/h · mean 6.12
Every finisher ran the same 87 km course, so these paces are directly comparable.
Histogram of finisher pace. 145 finishers ranged from 4.50 to 9.05 kilometres per hour, with a mean of 6.12 and a median of 5.98. The busiest band is 5.0 to 5.5 kilometres per hour, with 34 finishers.
Results
Ranks 51–100 of 145
| Rank | Runner | Time | Pace | Cat. | Placing |
|---|---|---|---|---|---|
| 51 | L'Equipe Type | 13:36:05h | 6.40 | M35 | 47th M · 7th M35 |
| 52 | R-Running Castres | 13:44:12h | 6.33 | W35 | 5th F · 3rd W35 |
| 53 | Tennis Rieux | 13:44:29h | 6.33 | M45 | 48th M · 8th M45 |
| 54 | Usma | 13:50:03h | 6.29 | M50 | 49th M · 5th M50 |
| 55 | Élan D’Armagnac | 13:50:17h | 6.29 | M23 | 50th M · 15th M23 |
| 56 | VTT EN Coeur de Garonne | 13:52:56h | 6.27 | M50 | 51st M · 6th M50 |
| 57 | Élan Capianais | 13:54:54h | 6.25 | M40 | 52nd M · 12th M40 |
| 58 | *Piton Saint Leu | 13:56:18h | 6.24 | W23 | 6th F · 2nd W23 |
| 59 | *Saint Nauphary | 13:56:27h | 6.24 | M40 | 53rd M · 13th M40 |
| 60 | ACF Alstom | 13:56:48h | 6.24 | M45 | 54th M · 9th M45 |
| 61 | Défi Outdoor la Rochelle | 13:59:29h | 6.22 | M50 | 55th M · 7th M50 |
| 62 | Team Rrunning Castres | 14:00:30h | 6.21 | W35 | 7th F · 4th W35 |
| 63 | Team Louisat | 14:01:46h | 6.20 | MU23 | 56th M · 1st MU23 |
| 64 | *Castelsarrasin | 14:06:32h | 6.17 | M45 | 57th M · 10th M45 |
| 65 | *Brens | 14:16:08h | 6.10 | M23 | 58th M · 16th M23 |
| 66 | L°Houmeau | 14:18:36h | 6.08 | M40 | 59th M · 14th M40 |
| 67 | *Castelculier | 14:23:52h | 6.04 | M35 | 60th M · 8th M35 |
| 68 | *Aurice | 14:26:16h | 6.03 | — | 61st M |
| 69 | Agpb | 14:29:07h | 6.01 | M40 | 62nd M · 15th M40 |
| 70 | Courir-Fonsegrives | 14:29:46h | 6.00 | M35 | 63rd M · 9th M35 |
| 71 | CTC Acfc Carcassonne | 14:31:34h | 5.99 | M50 | 64th M · 8th M50 |
| 72 | Team Bigorra | 14:33:00h | 5.98 | W23 | 8th F · 3rd W23 |
| 73 | les Bipèdes Cazeres | 14:33:04h | 5.98 | W45 | 9th F · 2nd W45 |
| 74 | AG Pierre Buffiere | 14:39:31h | 5.93 | M45 | 65th M · 11th M45 |
| 75 | *Montjoie En Couserans | 14:40:28h | 5.93 | M40 | 66th M · 16th M40 |
| 76 | *Toulouse | 14:40:59h | 5.92 | M23 | 67th M · 17th M23 |
| 77 | Oxygène 32 | 14:42:19h | 5.92 | M23 | 68th M · 18th M23 |
| 78 | Run IN Mouilleron | 14:42:26h | 5.92 | M45 | 69th M · 12th M45 |
| 79 | *Durfort Lacapelette (... | 14:45:19h | 5.90 | — | 70th M |
| 80 | Airbus Running | 14:51:16h | 5.86 | W23 | 10th F · 4th W23 |
| 81 | Chalonnes Olympique Sport | 14:54:00h | 5.84 | M23 | 71st M · 19th M23 |
| 82 | CAV | 15:00:09h | 5.80 | — | 11th F |
| 83 | VTT Coeur de Garonne | 15:00:18h | 5.80 | M40 | 72nd M · 17th M40 |
| 84 | Gasques Club | 15:03:41h | 5.78 | — | 73rd M |
| 85 | Run IN Mouilleron | 15:13:10h | 5.72 | W40 | 12th F · 1st W40 |
| 86 | *Saint-Vincent-De-Tyrosse | 15:17:28h | 5.69 | W23 | 13th F · 5th W23 |
| 87 | *Saint-Vincent-De-Tyrosse | 15:17:33h | 5.69 | — | 74th M |
| 88 | Nature Sport Attitude | 15:18:48h | 5.68 | M50 | 75th M · 9th M50 |
| 89 | Raid'YON | 15:21:17h | 5.67 | M40 | 76th M · 18th M40 |
| 90 | AC Chantonnaisien | 15:21:56h | 5.66 | W35 | 14th F · 5th W35 |
| 91 | Collectif Garun | 15:22:38h | 5.66 | M23 | 77th M · 20th M23 |
| 92 | *Pompejac | 15:24:58h | 5.64 | W23 | 15th F · 6th W23 |
| 93 | Essar'Trace | 15:28:51h | 5.62 | M35 | 78th M · 10th M35 |
| 94 | LE Cercle des Punk Dis... | 15:34:27h | 5.59 | W40 | 16th F · 2nd W40 |
| 95 | LE Cercle des Punk Dis... | 15:34:48h | 5.58 | M40 | 79th M · 19th M40 |
| 96 | AB Trail | 15:42:13h | 5.54 | M40 | 80th M · 20th M40 |
| 97 | Urtxintxak Hasparren | 15:45:13h | 5.52 | M50 | 81st M · 10th M50 |
| 98 | Portet Athletic Club | 15:46:25h | 5.52 | W35 | 17th F · 6th W35 |
| 99 | ASM PAU | 15:50:54h | 5.49 | — | 18th F |
| 100 | *Nerac | 15:52:05h | 5.48 | M23 | 82nd M · 21st M23 |
- 51L'Equipe Type47th M · 7th M35Time13:36:05hPace6.40Cat.M35
- 52R-Running Castres5th F · 3rd W35Time13:44:12hPace6.33Cat.W35
- 53Tennis Rieux48th M · 8th M45Time13:44:29hPace6.33Cat.M45
- 54Usma49th M · 5th M50Time13:50:03hPace6.29Cat.M50
- 55Élan D’Armagnac50th M · 15th M23Time13:50:17hPace6.29Cat.M23
- 56VTT EN Coeur de Garonne51st M · 6th M50Time13:52:56hPace6.27Cat.M50
- 57Élan Capianais52nd M · 12th M40Time13:54:54hPace6.25Cat.M40
- 58*Piton Saint Leu6th F · 2nd W23Time13:56:18hPace6.24Cat.W23
- 59*Saint Nauphary53rd M · 13th M40Time13:56:27hPace6.24Cat.M40
- 60ACF Alstom54th M · 9th M45Time13:56:48hPace6.24Cat.M45
- 61Défi Outdoor la Rochelle55th M · 7th M50Time13:59:29hPace6.22Cat.M50
- 62Team Rrunning Castres7th F · 4th W35Time14:00:30hPace6.21Cat.W35
- 63Team Louisat56th M · 1st MU23Time14:01:46hPace6.20Cat.MU23
- 64*Castelsarrasin57th M · 10th M45Time14:06:32hPace6.17Cat.M45
- 65*Brens58th M · 16th M23Time14:16:08hPace6.10Cat.M23
- 66L°Houmeau59th M · 14th M40Time14:18:36hPace6.08Cat.M40
- 67*Castelculier60th M · 8th M35Time14:23:52hPace6.04Cat.M35
- 68*Aurice61st MTime14:26:16hPace6.03
- 69Agpb62nd M · 15th M40Time14:29:07hPace6.01Cat.M40
- 70Courir-Fonsegrives63rd M · 9th M35Time14:29:46hPace6.00Cat.M35
- 71CTC Acfc Carcassonne64th M · 8th M50Time14:31:34hPace5.99Cat.M50
- 72Team Bigorra8th F · 3rd W23Time14:33:00hPace5.98Cat.W23
- 73les Bipèdes Cazeres9th F · 2nd W45Time14:33:04hPace5.98Cat.W45
- 74AG Pierre Buffiere65th M · 11th M45Time14:39:31hPace5.93Cat.M45
- 75*Montjoie En Couserans66th M · 16th M40Time14:40:28hPace5.93Cat.M40
- 76*Toulouse67th M · 17th M23Time14:40:59hPace5.92Cat.M23
- 77Oxygène 3268th M · 18th M23Time14:42:19hPace5.92Cat.M23
- 78Run IN Mouilleron69th M · 12th M45Time14:42:26hPace5.92Cat.M45
- 79*Durfort Lacapelette (...70th MTime14:45:19hPace5.90
- 80Airbus Running10th F · 4th W23Time14:51:16hPace5.86Cat.W23
- 81Chalonnes Olympique Sport71st M · 19th M23Time14:54:00hPace5.84Cat.M23
- 82CAV11th FTime15:00:09hPace5.80
- 83VTT Coeur de Garonne72nd M · 17th M40Time15:00:18hPace5.80Cat.M40
- 84Gasques Club73rd MTime15:03:41hPace5.78
- 85Run IN Mouilleron12th F · 1st W40Time15:13:10hPace5.72Cat.W40
- 86*Saint-Vincent-De-Tyrosse13th F · 5th W23Time15:17:28hPace5.69Cat.W23
- 87*Saint-Vincent-De-Tyrosse74th MTime15:17:33hPace5.69
- 88Nature Sport Attitude75th M · 9th M50Time15:18:48hPace5.68Cat.M50
- 89Raid'YON76th M · 18th M40Time15:21:17hPace5.67Cat.M40
- 90AC Chantonnaisien14th F · 5th W35Time15:21:56hPace5.66Cat.W35
- 91Collectif Garun77th M · 20th M23Time15:22:38hPace5.66Cat.M23
- 92*Pompejac15th F · 6th W23Time15:24:58hPace5.64Cat.W23
- 93Essar'Trace78th M · 10th M35Time15:28:51hPace5.62Cat.M35
- 94LE Cercle des Punk Dis...16th F · 2nd W40Time15:34:27hPace5.59Cat.W40
- 95LE Cercle des Punk Dis...79th M · 19th M40Time15:34:48hPace5.58Cat.M40
- 96AB Trail80th M · 20th M40Time15:42:13hPace5.54Cat.M40
- 97Urtxintxak Hasparren81st M · 10th M50Time15:45:13hPace5.52Cat.M50
- 98Portet Athletic Club17th F · 6th W35Time15:46:25hPace5.52Cat.W35
- 99ASM PAU18th FTime15:50:54hPace5.49
- 100*Nerac82nd M · 21st M23Time15:52:05hPace5.48Cat.M23
Showing ranks 51–100 of 145